Time;durP1;ratioP1;P1;durP2;ratioP2;P2;SDS_P1;SDS_P2;PMS_P1;PMS_P2;Temp;Humidity;BMP_temperature;BMP_pressure;BME280_temperature;BME280_humidity;BME280_pressure;Samples;Min_cycle;Max_cycle;Signal;HPM_P1;HPM_P2
2021/07/18 00:00:32;;;;;;;2.55;0.80;;;22.30;68.00;;;;;;5119629;28;20376;-71
2021/07/18 00:02:57;;;;;;;1.23;0.90;;;22.30;70.90;;;;;;5119338;28;20019;-71
2021/07/18 00:05:24;;;;;;;1.35;0.80;;;22.10;71.50;;;;;;5119555;28;20026;-71
2021/07/18 00:07:49;;;;;;;1.38;0.80;;;22.00;71.40;;;;;;5119553;28;20041;-71
2021/07/18 00:10:15;;;;;;;1.20;0.77;;;22.00;69.70;;;;;;5119494;28;20452;-71
2021/07/18 00:12:42;;;;;;;1.10;0.75;;;22.10;70.10;;;;;;5119112;28;20308;-71
2021/07/18 00:15:10;;;;;;;0.95;0.70;;;22.10;70.20;;;;;;5119415;28;20024;-71
2021/07/18 00:17:37;;;;;;;1.10;0.70;;;22.10;71.10;;;;;;5119131;28;20028;-71
2021/07/18 00:20:09;;;;;;;0.95;0.82;;;22.10;71.00;;;;;;5119012;28;20024;-71
2021/07/18 00:22:35;;;;;;;1.45;0.80;;;22.00;70.80;;;;;;5118964;28;20050;-71
2021/07/18 00:25:02;;;;;;;1.52;0.85;;;22.00;71.70;;;;;;5118899;28;20076;-71
2021/07/18 00:27:28;;;;;;;1.15;0.85;;;22.00;71.50;;;;;;5119071;28;20028;-71
2021/07/18 00:29:53;;;;;;;3.10;1.10;;;21.90;70.80;;;;;;5119097;28;20217;-71
2021/07/18 00:32:19;;;;;;;0.82;0.57;;;21.90;68.30;;;;;;5118745;28;20118;-71
2021/07/18 00:34:45;;;;;;;1.17;0.70;;;22.10;67.90;;;;;;5118994;28;20073;-71
2021/07/18 00:37:10;;;;;;;0.73;0.65;;;22.20;67.00;;;;;;5118814;28;20035;-71
2021/07/18 00:39:36;;;;;;;2.22;0.93;;;22.40;66.90;;;;;;5118517;28;20127;-71
2021/07/18 00:42:03;;;;;;;2.05;1.00;;;22.50;67.70;;;;;;5118495;28;20043;-71
2021/07/18 00:44:29;;;;;;;2.55;0.60;;;22.50;66.60;;;;;;5118909;28;20062;-71
2021/07/18 00:46:55;;;;;;;2.75;0.80;;;22.50;66.80;;;;;;5118801;28;20051;-71
2021/07/18 00:49:20;;;;;;;1.45;0.75;;;22.60;66.30;;;;;;5118394;28;20024;-71
2021/07/18 00:51:47;;;;;;;0.88;0.60;;;22.60;65.80;;;;;;5118659;28;20031;-71
2021/07/18 00:54:13;;;;;;;1.20;1.00;;;22.70;66.90;;;;;;5118570;28;20327;-71
2021/07/18 00:56:39;;;;;;;2.50;0.98;;;22.60;67.40;;;;;;5118476;28;20038;-71
2021/07/18 00:59:05;;;;;;;3.83;0.77;;;22.60;67.80;;;;;;5118554;28;20048;-71
2021/07/18 01:01:31;;;;;;;0.95;0.70;;;22.50;68.10;;;;;;5118334;28;20046;-71
2021/07/18 01:03:57;;;;;;;1.73;0.98;;;22.50;67.70;;;;;;5118388;28;20404;-71
2021/07/18 01:06:24;;;;;;;1.02;0.68;;;22.40;67.60;;;;;;5118379;28;20031;-71
2021/07/18 01:08:50;;;;;;;2.65;0.80;;;22.40;66.90;;;;;;5118333;28;20073;-71
2021/07/18 01:11:16;;;;;;;0.80;0.73;;;22.30;66.00;;;;;;5118339;28;20377;-71
2021/07/18 01:13:42;;;;;;;0.82;0.70;;;22.40;68.60;;;;;;5117893;28;20485;-71
2021/07/18 01:16:07;;;;;;;1.35;0.70;;;22.40;67.60;;;;;;5118081;28;20084;-71
2021/07/18 01:18:34;;;;;;;1.55;0.70;;;22.30;68.10;;;;;;5118186;28;20292;-71
2021/07/18 01:21:00;;;;;;;2.30;0.60;;;22.30;67.10;;;;;;5117797;28;20027;-71
2021/07/18 01:23:26;;;;;;;1.00;0.70;;;22.30;66.60;;;;;;5117769;28;20048;-71
2021/07/18 01:25:55;;;;;;;1.85;0.70;;;22.40;67.20;;;;;;5118048;28;20341;-71
2021/07/18 01:28:21;;;;;;;1.25;0.60;;;22.40;67.90;;;;;;5118020;28;20023;-71
2021/07/18 01:30:48;;;;;;;1.45;0.82;;;22.40;68.60;;;;;;5117615;28;20077;-71
2021/07/18 01:33:14;;;;;;;2.28;0.90;;;22.50;67.90;;;;;;5117889;28;20023;-71
2021/07/18 01:35:39;;;;;;;1.95;0.68;;;22.50;69.00;;;;;;5117738;28;20031;-71
2021/07/18 01:38:08;;;;;;;1.13;1.00;;;22.40;69.60;;;;;;5117382;28;20075;-70
2021/07/18 01:40:33;;;;;;;1.80;0.80;;;22.20;70.40;;;;;;5117451;28;20032;-71
2021/07/18 01:42:59;;;;;;;1.52;0.80;;;22.10;70.70;;;;;;5117464;28;20085;-71
2021/07/18 01:45:25;;;;;;;1.40;1.00;;;22.00;71.30;;;;;;5117377;28;20118;-71
2021/07/18 01:47:51;;;;;;;2.47;0.85;;;21.90;70.50;;;;;;5117366;28;20028;-71
2021/07/18 01:50:17;;;;;;;1.45;0.95;;;21.90;71.70;;;;;;5117586;28;20035;-71
2021/07/18 01:52:44;;;;;;;1.75;0.85;;;21.90;72.50;;;;;;5117299;28;20027;-71
2021/07/18 01:55:10;;;;;;;1.05;0.80;;;21.80;72.20;;;;;;5117592;28;20028;-71
2021/07/18 01:57:36;;;;;;;0.80;0.65;;;21.80;72.60;;;;;;5117413;28;20035;-71
2021/07/18 02:00:05;;;;;;;1.92;1.20;;;21.70;72.50;;;;;;5117463;28;20447;-70
2021/07/18 02:02:31;;;;;;;2.35;0.90;;;21.70;73.40;;;;;;5117463;28;20343;-71
2021/07/18 02:04:56;;;;;;;3.08;1.05;;;21.70;72.80;;;;;;5117436;28;20028;-71
2021/07/18 02:07:26;;;;;;;1.55;1.10;;;21.70;72.90;;;;;;5117402;28;20424;-71
2021/07/18 02:09:56;;;;;;;1.13;0.90;;;21.70;72.60;;;;;;5117659;28;20038;-71
2021/07/18 02:12:22;;;;;;;2.28;0.98;;;21.80;72.40;;;;;;5117137;28;20024;-71
2021/07/18 02:14:48;;;;;;;3.55;0.90;;;21.80;71.70;;;;;;5117513;28;20315;-71
2021/07/18 02:17:14;;;;;;;1.35;0.90;;;21.90;71.60;;;;;;5117196;28;20038;-71
2021/07/18 02:19:40;;;;;;;2.53;0.90;;;21.90;72.60;;;;;;5117606;28;20089;-71
2021/07/18 02:22:06;;;;;;;1.67;0.98;;;21.90;72.40;;;;;;5116995;28;20339;-71
2021/07/18 02:24:32;;;;;;;1.75;0.85;;;21.90;70.00;;;;;;5116944;28;20027;-71
2021/07/18 02:26:58;;;;;;;2.95;0.80;;;22.00;70.00;;;;;;5117256;28;20074;-71
2021/07/18 02:29:24;;;;;;;1.73;0.90;;;22.00;69.80;;;;;;5117171;28;20358;-71
2021/07/18 02:31:56;;;;;;;1.55;1.08;;;22.10;69.40;;;;;;5117249;28;20028;-70
2021/07/18 02:34:22;;;;;;;1.98;0.80;;;22.20;68.70;;;;;;5116848;28;20027;-71
2021/07/18 02:36:47;;;;;;;4.75;1.08;;;22.30;68.90;;;;;;5117108;28;20024;-71
2021/07/18 02:39:13;;;;;;;1.90;0.70;;;22.40;68.50;;;;;;5116810;28;20047;-71
2021/07/18 02:41:39;;;;;;;0.90;0.70;;;22.40;67.20;;;;;;5117126;28;20015;-71
2021/07/18 02:44:06;;;;;;;1.20;0.90;;;22.50;67.80;;;;;;5117099;28;20028;-71
2021/07/18 02:46:33;;;;;;;3.10;0.95;;;22.50;67.20;;;;;;5117055;28;20035;-71
2021/07/18 02:48:58;;;;;;;1.00;0.75;;;22.60;66.80;;;;;;5116772;28;20038;-71
2021/07/18 02:51:24;;;;;;;0.90;0.60;;;22.60;66.70;;;;;;5117040;28;20024;-71
2021/07/18 02:53:50;;;;;;;1.25;0.75;;;22.60;66.40;;;;;;5117005;28;20035;-71
2021/07/18 02:56:15;;;;;;;1.33;0.70;;;22.60;68.00;;;;;;5116945;28;20033;-71
2021/07/18 02:58:41;;;;;;;2.25;0.70;;;22.60;66.50;;;;;;5116980;28;20024;-71
2021/07/18 03:01:07;;;;;;;2.33;0.98;;;22.60;66.90;;;;;;5116952;28;20094;-71
2021/07/18 03:03:32;;;;;;;0.98;0.75;;;22.60;66.60;;;;;;5116897;28;20396;-71
2021/07/18 03:05:58;;;;;;;0.82;0.60;;;22.60;66.20;;;;;;5116901;28;20023;-71
2021/07/18 03:08:23;;;;;;;0.80;0.50;;;22.70;66.10;;;;;;5116879;28;20292;-71
2021/07/18 03:10:49;;;;;;;2.45;0.90;;;22.70;66.50;;;;;;5116581;28;20019;-71
2021/07/18 03:13:15;;;;;;;0.60;0.60;;;22.70;67.30;;;;;;5116627;28;20118;-71
2021/07/18 03:15:40;;;;;;;1.20;0.70;;;22.60;68.60;;;;;;5116676;28;20111;-71
2021/07/18 03:18:08;;;;;;;1.95;0.70;;;22.60;69.20;;;;;;5116500;28;20162;-71
2021/07/18 03:20:34;;;;;;;1.10;0.80;;;22.50;68.70;;;;;;5116746;28;20027;-71
2021/07/18 03:22:59;;;;;;;0.98;0.60;;;22.40;68.10;;;;;;5116779;28;20046;-71
2021/07/18 03:25:25;;;;;;;1.00;0.70;;;22.30;67.60;;;;;;5119653;28;20360;-71
2021/07/18 03:27:51;;;;;;;1.27;0.70;;;22.30;67.90;;;;;;5120677;28;20085;-71
2021/07/18 03:30:18;;;;;;;1.60;0.68;;;22.30;66.80;;;;;;5119948;28;20476;-71
2021/07/18 03:32:44;;;;;;;0.80;0.70;;;22.40;67.60;;;;;;5119906;28;20045;-71
2021/07/18 03:35:12;;;;;;;3.08;0.70;;;22.40;68.40;;;;;;5119922;28;20054;-71
2021/07/18 03:37:39;;;;;;;1.00;0.70;;;22.40;64.80;;;;;;5119769;28;20031;-71
2021/07/18 03:40:09;;;;;;;1.98;0.80;;;22.50;65.80;;;;;;5119665;28;20036;-71
2021/07/18 03:42:36;;;;;;;1.00;0.70;;;22.60;65.40;;;;;;5119996;28;20031;-71
2021/07/18 03:45:04;;;;;;;1.42;0.68;;;22.70;65.00;;;;;;5120031;28;20111;-71
2021/07/18 03:47:29;;;;;;;1.00;0.85;;;22.80;65.70;;;;;;5119878;28;20023;-71
2021/07/18 03:49:55;;;;;;;1.17;0.70;;;22.80;67.30;;;;;;5119924;28;20047;-71
2021/07/18 03:52:20;;;;;;;1.45;0.70;;;22.80;68.10;;;;;;5119847;28;20106;-71
2021/07/18 03:54:46;;;;;;;2.20;0.90;;;22.70;65.40;;;;;;5119781;28;20070;-71
2021/07/18 03:57:12;;;;;;;0.65;0.60;;;22.70;65.20;;;;;;5119667;28;20496;-71
2021/07/18 03:59:37;;;;;;;2.35;0.70;;;22.70;65.50;;;;;;5119842;28;20320;-71
2021/07/18 04:02:03;;;;;;;0.88;0.75;;;22.80;64.90;;;;;;5119380;28;20023;-71
2021/07/18 04:04:29;;;;;;;1.00;0.63;;;22.80;64.70;;;;;;5119646;28;20027;-71
2021/07/18 04:06:54;;;;;;;1.45;0.60;;;22.80;65.10;;;;;;5119588;28;20031;-71
2021/07/18 04:09:20;;;;;;;1.27;0.43;;;22.80;64.40;;;;;;5119515;28;20031;-71
2021/07/18 04:11:45;;;;;;;0.63;0.52;;;22.80;64.90;;;;;;5119522;28;20422;-71
2021/07/18 04:14:11;;;;;;;1.02;0.68;;;22.80;64.40;;;;;;5119589;28;20445;-71
2021/07/18 04:16:37;;;;;;;1.20;0.70;;;22.90;64.40;;;;;;5119308;28;20408;-71
2021/07/18 04:19:02;;;;;;;0.93;0.55;;;23.00;64.50;;;;;;5119343;28;20015;-70
2021/07/18 04:21:28;;;;;;;1.33;0.73;;;23.10;63.80;;;;;;5119298;28;20458;-71
2021/07/18 04:23:54;;;;;;;4.22;0.75;;;23.20;63.10;;;;;;5119243;28;20020;-71
2021/07/18 04:26:19;;;;;;;1.13;0.75;;;23.40;63.30;;;;;;5119192;28;20070;-71
2021/07/18 04:28:45;;;;;;;0.60;0.50;;;23.40;62.60;;;;;;5118899;28;20023;-71
2021/07/18 04:31:11;;;;;;;0.73;0.63;;;23.50;62.50;;;;;;5119135;28;20031;-71
2021/07/18 04:33:36;;;;;;;0.90;0.60;;;23.50;62.10;;;;;;5118690;28;20042;-71
2021/07/18 04:36:02;;;;;;;1.75;0.63;;;23.50;62.00;;;;;;5118451;28;20035;-71
2021/07/18 04:38:28;;;;;;;1.75;0.60;;;23.60;61.60;;;;;;5118680;28;20069;-71
2021/07/18 04:40:53;;;;;;;1.35;0.70;;;23.60;61.40;;;;;;5118981;28;20303;-71
2021/07/18 04:43:19;;;;;;;0.80;0.57;;;23.70;61.80;;;;;;5118914;28;20028;-71
2021/07/18 04:45:45;;;;;;;0.98;0.60;;;23.80;61.80;;;;;;5118793;28;20109;-71
2021/07/18 04:48:10;;;;;;;2.80;1.13;;;23.80;61.60;;;;;;5118812;28;20077;-71
2021/07/18 04:50:36;;;;;;;1.45;0.60;;;23.70;64.00;;;;;;5118705;28;20028;-71
2021/07/18 04:53:02;;;;;;;0.82;0.57;;;23.50;63.00;;;;;;5118391;28;20023;-71
2021/07/18 04:55:27;;;;;;;1.48;0.70;;;23.40;65.10;;;;;;5118569;28;20019;-71
2021/07/18 04:57:53;;;;;;;1.25;0.70;;;23.30;65.40;;;;;;5118510;28;20031;-71
2021/07/18 05:00:21;;;;;;;2.60;0.60;;;23.10;66.70;;;;;;5118561;28;20323;-70
2021/07/18 05:02:48;;;;;;;0.80;0.50;;;23.00;68.40;;;;;;5118126;28;20073;-71
2021/07/18 05:05:17;;;;;;;3.85;0.80;;;22.80;69.20;;;;;;5118119;28;20493;-71
2021/07/18 05:07:56;;;;;;;0.70;0.60;;;22.70;69.80;;;;;;5118087;28;20023;-71
2021/07/18 05:10:24;;;;;;;1.38;0.75;;;22.70;69.70;;;;;;5118057;28;20031;-71
2021/07/18 05:12:51;;;;;;;2.45;0.60;;;22.80;67.90;;;;;;5117861;28;20031;-71
2021/07/18 05:15:18;;;;;;;0.57;0.50;;;23.00;67.30;;;;;;5117901;28;20119;-71
2021/07/18 05:17:44;;;;;;;2.05;0.80;;;23.10;66.00;;;;;;5118138;28;20028;-71
2021/07/18 05:20:10;;;;;;;3.47;0.60;;;23.20;69.20;;;;;;5118145;28;20034;-71
2021/07/18 05:22:36;;;;;;;0.98;0.70;;;23.20;72.00;;;;;;5117726;28;20028;-71
2021/07/18 05:25:04;;;;;;;1.10;0.70;;;23.20;70.90;;;;;;5117798;28;20034;-71
2021/07/18 05:27:30;;;;;;;1.00;0.80;;;23.20;72.40;;;;;;5117605;28;20069;-71
2021/07/18 05:29:56;;;;;;;1.40;1.15;;;23.10;71.50;;;;;;5117685;28;20027;-71
2021/07/18 05:32:21;;;;;;;1.00;0.80;;;23.10;69.50;;;;;;5117962;28;20019;-71
2021/07/18 05:34:47;;;;;;;1.00;0.70;;;23.10;68.70;;;;;;5117893;28;20031;-71
2021/07/18 05:37:13;;;;;;;2.40;1.00;;;23.10;72.20;;;;;;5117430;28;20454;-71
2021/07/18 05:39:39;;;;;;;1.50;0.85;;;23.10;72.00;;;;;;5117447;28;20050;-71
2021/07/18 05:42:05;;;;;;;1.00;0.60;;;23.00;69.20;;;;;;5117438;28;20024;-70
2021/07/18 05:44:32;;;;;;;1.00;0.50;;;23.00;70.20;;;;;;5117867;28;20024;-71
2021/07/18 05:46:58;;;;;;;2.70;0.52;;;23.10;67.00;;;;;;5116889;28;20031;-71
2021/07/18 05:49:24;;;;;;;0.80;0.60;;;23.40;67.30;;;;;;5117690;28;20037;-71
2021/07/18 05:51:49;;;;;;;0.82;0.63;;;23.60;67.50;;;;;;5117655;28;20023;-71
2021/07/18 05:54:15;;;;;;;2.10;0.50;;;23.90;67.10;;;;;;5117603;28;20324;-71
2021/07/18 05:56:41;;;;;;;2.33;0.70;;;24.10;67.80;;;;;;5117181;28;20028;-71
2021/07/18 05:59:07;;;;;;;1.70;0.80;;;24.20;71.30;;;;;;5117518;28;20027;-71
2021/07/18 06:01:32;;;;;;;0.90;0.60;;;24.10;68.30;;;;;;5117530;28;20047;-71
2021/07/18 06:03:58;;;;;;;1.05;0.70;;;23.90;70.30;;;;;;5117463;28;20033;-71
2021/07/18 06:06:24;;;;;;;1.20;0.52;;;23.60;69.50;;;;;;5117478;28;20046;-71
2021/07/18 06:08:49;;;;;;;1.30;0.65;;;23.30;69.40;;;;;;5117443;28;20434;-71
2021/07/18 06:11:15;;;;;;;1.50;0.70;;;23.10;71.40;;;;;;5117422;28;20411;-71
2021/07/18 06:13:41;;;;;;;2.30;0.70;;;23.00;70.90;;;;;;5117502;28;20319;-71
2021/07/18 06:16:08;;;;;;;0.60;0.52;;;22.90;68.90;;;;;;5117248;28;20027;-71
2021/07/18 06:18:33;;;;;;;1.08;0.60;;;23.00;70.10;;;;;;5117043;28;20297;-71
2021/07/18 06:20:59;;;;;;;1.30;0.60;;;23.00;69.70;;;;;;5117071;28;20026;-71
2021/07/18 06:23:25;;;;;;;2.10;0.60;;;23.10;71.10;;;;;;5117320;28;20058;-71
2021/07/18 06:25:50;;;;;;;0.90;0.70;;;23.10;70.60;;;;;;5116944;28;20400;-71
2021/07/18 06:28:16;;;;;;;1.40;0.60;;;23.20;72.00;;;;;;5116968;28;20032;-71
2021/07/18 06:30:42;;;;;;;2.30;0.70;;;23.20;73.80;;;;;;5116924;28;20020;-71
2021/07/18 06:33:07;;;;;;;1.48;0.80;;;23.20;73.30;;;;;;5116936;28;20055;-71
2021/07/18 06:35:33;;;;;;;0.80;0.60;;;23.20;73.50;;;;;;5116855;28;20043;-71
2021/07/18 06:37:59;;;;;;;0.80;0.60;;;23.20;71.50;;;;;;5116660;28;20039;-71
2021/07/18 06:40:25;;;;;;;1.27;0.70;;;23.20;72.40;;;;;;5116881;28;20028;-71
2021/07/18 06:42:50;;;;;;;0.80;0.60;;;23.30;73.60;;;;;;5117000;28;20106;-71
2021/07/18 06:45:16;;;;;;;0.80;0.73;;;23.30;72.10;;;;;;5117044;28;20050;-71
2021/07/18 06:47:41;;;;;;;0.63;0.50;;;23.30;71.90;;;;;;5117101;28;20356;-71
2021/07/18 06:50:08;;;;;;;1.05;0.65;;;23.20;72.90;;;;;;5117042;28;20032;-71
2021/07/18 06:52:34;;;;;;;0.68;0.50;;;23.20;72.40;;;;;;5117010;28;20055;-71
2021/07/18 06:54:59;;;;;;;0.63;0.50;;;23.10;70.80;;;;;;5117061;28;20058;-71
2021/07/18 06:57:25;;;;;;;0.95;0.63;;;23.10;70.90;;;;;;5116585;28;20055;-71
2021/07/18 06:59:50;;;;;;;1.23;0.60;;;23.10;69.60;;;;;;5120532;28;20066;-71
2021/07/18 07:02:16;;;;;;;4.13;0.77;;;23.20;69.20;;;;;;5120531;28;20023;-71
2021/07/18 07:04:42;;;;;;;1.33;0.77;;;23.30;69.80;;;;;;5120820;28;20016;-71
2021/07/18 07:07:08;;;;;;;0.65;0.50;;;23.40;69.20;;;;;;5120739;28;20048;-71
2021/07/18 07:09:33;;;;;;;0.73;0.63;;;23.50;69.80;;;;;;5120396;28;20031;-71
2021/07/18 07:11:59;;;;;;;1.10;0.70;;;23.70;69.70;;;;;;5120681;28;20031;-71
2021/07/18 07:14:25;;;;;;;1.15;0.60;;;24.00;72.50;;;;;;5120809;28;20019;-71
2021/07/18 07:16:51;;;;;;;1.23;0.68;;;24.20;73.70;;;;;;5120452;28;20035;-71
2021/07/18 07:19:16;;;;;;;1.10;0.50;;;24.30;74.40;;;;;;5120213;28;20034;-71
2021/07/18 07:21:42;;;;;;;1.25;0.63;;;24.50;75.70;;;;;;5120202;28;20035;-71
2021/07/18 07:24:08;;;;;;;1.10;0.70;;;24.60;74.70;;;;;;5120412;28;20024;-71
2021/07/18 07:26:34;;;;;;;1.25;0.60;;;24.60;75.30;;;;;;5120086;28;20442;-71
2021/07/18 07:28:59;;;;;;;3.75;0.68;;;24.60;71.90;;;;;;5120040;28;20032;-71
2021/07/18 07:31:25;;;;;;;0.98;0.60;;;24.40;69.80;;;;;;5120010;28;20115;-71
2021/07/18 07:33:51;;;;;;;1.00;0.65;;;24.20;67.70;;;;;;5120253;28;20032;-71
2021/07/18 07:36:17;;;;;;;1.45;0.80;;;24.20;67.40;;;;;;5119810;28;20063;-71
2021/07/18 07:38:43;;;;;;;2.25;0.75;;;24.10;66.50;;;;;;5119833;28;20039;-71
2021/07/18 07:41:09;;;;;;;1.77;0.63;;;24.00;66.30;;;;;;5120143;28;20026;-71
2021/07/18 07:43:35;;;;;;;1.73;0.60;;;24.00;66.80;;;;;;5120207;28;20410;-71
2021/07/18 07:46:01;;;;;;;1.30;0.70;;;24.00;66.40;;;;;;5119960;28;20051;-71
2021/07/18 07:48:27;;;;;;;1.08;0.73;;;24.00;66.60;;;;;;5119968;28;20027;-71
2021/07/18 07:50:54;;;;;;;2.22;0.70;;;24.10;67.50;;;;;;5119616;28;20038;-71
2021/07/18 07:53:20;;;;;;;2.65;0.57;;;24.30;70.50;;;;;;5119587;28;20055;-71
2021/07/18 07:55:45;;;;;;;0.90;0.60;;;24.40;71.60;;;;;;5119385;28;20024;-71
2021/07/18 07:58:12;;;;;;;0.88;0.60;;;24.50;65.90;;;;;;5119778;28;20030;-71
2021/07/18 08:00:37;;;;;;;1.20;0.70;;;24.60;70.20;;;;;;5119717;28;20358;-71
2021/07/18 08:03:04;;;;;;;1.00;0.68;;;24.80;71.80;;;;;;5119721;28;20024;-71
2021/07/18 08:05:30;;;;;;;2.08;0.60;;;25.10;68.70;;;;;;5119602;28;20034;-71
2021/07/18 08:07:55;;;;;;;2.92;0.40;;;25.30;66.90;;;;;;5119316;28;20127;-71
2021/07/18 08:10:23;;;;;;;0.98;0.65;;;25.40;64.40;;;;;;5118685;28;20052;-71
2021/07/18 08:12:49;;;;;;;1.67;0.60;;;25.60;66.10;;;;;;5119141;28;20046;-71
2021/07/18 08:15:17;;;;;;;0.77;0.50;;;25.90;64.20;;;;;;5119271;28;20335;-71
2021/07/18 08:17:44;;;;;;;0.55;0.55;;;26.20;64.60;;;;;;5119311;28;20027;-71
2021/07/18 08:20:16;;;;;;;0.90;0.63;;;26.70;63.30;;;;;;5119381;28;20099;-71
2021/07/18 08:22:42;;;;;;;1.10;0.60;;;27.20;67.90;;;;;;5119364;28;20103;-71
2021/07/18 08:25:08;;;;;;;2.03;0.45;;;28.20;62.50;;;;;;5119285;28;20031;-71
2021/07/18 08:27:35;;;;;;;0.93;0.50;;;29.00;58.90;;;;;;5118812;28;20035;-70
2021/07/18 08:30:02;;;;;;;2.03;0.52;;;30.30;64.20;;;;;;5119143;28;20027;-70
2021/07/18 08:32:27;;;;;;;0.70;0.50;;;30.80;59.30;;;;;;5118764;28;20055;-70
2021/07/18 08:34:53;;;;;;;0.88;0.40;;;30.80;56.50;;;;;;5119102;28;20058;-70
2021/07/18 08:37:19;;;;;;;0.70;0.40;;;30.60;55.00;;;;;;5118611;28;20020;-70
2021/07/18 08:39:44;;;;;;;0.60;0.30;;;30.40;53.80;;;;;;5118465;28;20051;-69
2021/07/18 08:42:13;;;;;;;0.50;0.40;;;30.40;58.10;;;;;;5118952;28;20023;-69
2021/07/18 08:44:40;;;;;;;0.50;0.50;;;30.20;58.80;;;;;;5119153;28;20102;-70
2021/07/18 08:47:06;;;;;;;1.20;0.40;;;30.00;61.30;;;;;;5118826;28;20301;-70
2021/07/18 08:49:32;;;;;;;0.90;0.52;;;29.80;59.40;;;;;;5118805;28;20027;-69
2021/07/18 08:51:58;;;;;;;0.40;0.40;;;29.50;58.70;;;;;;5118760;28;20370;-70
2021/07/18 08:54:25;;;;;;;0.90;0.60;;;29.30;58.50;;;;;;5118290;28;20435;-70
2021/07/18 08:56:52;;;;;;;1.67;0.50;;;29.30;62.10;;;;;;5118554;28;20035;-69
2021/07/18 08:59:18;;;;;;;1.52;0.60;;;29.40;59.10;;;;;;5118593;28;20031;-70
2021/07/18 09:01:45;;;;;;;1.08;0.50;;;30.40;54.90;;;;;;5118568;28;20320;-70
2021/07/18 09:04:11;;;;;;;2.50;0.50;;;31.40;52.80;;;;;;5118441;28;20016;-71
2021/07/18 09:06:48;;;;;;;0.68;0.40;;;32.20;52.00;;;;;;5118421;28;20077;-70
2021/07/18 09:09:22;;;;;;;0.75;0.50;;;32.10;52.30;;;;;;5118057;28;20077;-70
2021/07/18 09:12:04;;;;;;;0.80;0.50;;;32.20;51.10;;;;;;5118006;28;20030;-70
2021/07/18 09:14:36;;;;;;;1.90;0.50;;;32.40;51.90;;;;;;5118580;28;20032;-71
2021/07/18 09:17:02;;;;;;;1.00;0.60;;;32.00;53.00;;;;;;5117858;28;20031;-70
2021/07/18 09:19:31;;;;;;;1.25;0.60;;;31.10;55.10;;;;;;5117898;28;20328;-70
2021/07/18 09:21:59;;;;;;;0.95;0.50;;;30.40;54.40;;;;;;5117718;28;20439;-70
2021/07/18 09:24:27;;;;;;;0.63;0.55;;;29.80;57.20;;;;;;5118076;28;20297;-70
2021/07/18 09:27:28;;;;;;;1.35;0.65;;;29.10;58.30;;;;;;5117743;28;20111;-71
2021/07/18 09:30:06;;;;;;;0.75;0.60;;;28.60;58.60;;;;;;5118029;28;20046;-70
2021/07/18 09:32:35;;;;;;;0.98;0.70;;;28.50;61.00;;;;;;5117728;28;20346;-71
2021/07/18 09:35:05;;;;;;;2.00;0.63;;;28.50;63.20;;;;;;5117641;28;20107;-70
2021/07/18 09:37:34;;;;;;;0.93;0.70;;;28.60;62.40;;;;;;5117454;28;20028;-70
2021/07/18 09:40:16;;;;;;;1.85;0.50;;;28.80;59.00;;;;;;5117372;28;20101;-71
2021/07/18 09:42:53;;;;;;;1.38;0.75;;;28.80;59.90;;;;;;5117499;28;20098;-71
2021/07/18 09:45:24;;;;;;;0.90;0.77;;;29.00;59.80;;;;;;5117708;28;20108;-70
2021/07/18 09:47:52;;;;;;;1.58;0.70;;;29.30;62.20;;;;;;5117725;28;20103;-71
2021/07/18 09:50:19;;;;;;;0.98;0.85;;;29.60;61.10;;;;;;5117355;28;20109;-71
2021/07/18 09:52:48;;;;;;;1.38;0.70;;;30.40;58.90;;;;;;5117294;28;20024;-71
2021/07/18 09:55:21;;;;;;;0.90;0.70;;;31.80;55.70;;;;;;5117568;28;20076;-71
2021/07/18 09:57:51;;;;;;;1.15;0.50;;;32.90;51.40;;;;;;5117495;28;20031;-71
2021/07/18 10:00:19;;;;;;;0.88;0.60;;;33.50;48.60;;;;;;5117843;28;20031;-71
2021/07/18 10:02:45;;;;;;;0.75;0.50;;;33.40;52.90;;;;;;5117008;28;20026;-71
2021/07/18 10:05:37;;;;;;;1.95;0.63;;;33.10;50.10;;;;;;5117281;28;20102;-70
2021/07/18 10:08:11;;;;;;;2.78;0.55;;;32.60;53.40;;;;;;5113385;28;20056;-70
2021/07/18 10:10:40;;;;;;;0.60;0.43;;;32.30;54.90;;;;;;5117176;28;20024;-70
2021/07/18 10:13:07;;;;;;;1.45;0.90;;;32.00;55.30;;;;;;5117431;28;20028;-70
2021/07/18 10:15:33;;;;;;;1.13;0.70;;;31.50;58.50;;;;;;5117027;28;20047;-70
2021/07/18 10:17:59;;;;;;;2.00;0.70;;;31.30;58.70;;;;;;5114824;28;20020;-70
2021/07/18 10:20:26;;;;;;;1.75;0.60;;;31.60;59.20;;;;;;5109651;28;20032;-70
2021/07/18 10:22:56;;;;;;;0.93;0.55;;;31.90;53.60;;;;;;5097885;28;20095;-70
2021/07/18 10:25:24;;;;;;;2.28;0.63;;;32.10;53.50;;;;;;5096887;28;20062;-71
2021/07/18 10:27:51;;;;;;;1.20;0.50;;;31.80;54.40;;;;;;5096920;28;20094;-71
2021/07/18 10:30:18;;;;;;;1.25;0.50;;;31.40;52.30;;;;;;5096550;28;20442;-70
2021/07/18 10:32:45;;;;;;;0.75;0.55;;;31.30;59.00;;;;;;5097049;28;20028;-70
2021/07/18 10:35:12;;;;;;;0.70;0.55;;;31.10;56.70;;;;;;5100716;28;20431;-70
2021/07/18 10:37:42;;;;;;;1.10;0.60;;;30.90;57.40;;;;;;5100803;28;20285;-70
2021/07/18 10:40:21;;;;;;;1.05;0.60;;;30.70;55.50;;;;;;5100439;28;20046;-70
2021/07/18 10:42:49;;;;;;;1.10;0.68;;;30.30;54.90;;;;;;5100746;28;20020;-70
2021/07/18 10:45:27;;;;;;;1.20;0.90;;;30.00;59.70;;;;;;5100457;28;20035;-70
2021/07/18 10:48:05;;;;;;;2.10;1.00;;;29.60;60.30;;;;;;5100768;28;20024;-70
2021/07/18 10:50:46;;;;;;;1.17;0.70;;;29.20;62.10;;;;;;5100722;28;20347;-70
2021/07/18 10:53:20;;;;;;;1.63;0.90;;;28.80;64.10;;;;;;5100640;28;20032;-70
2021/07/18 10:55:46;;;;;;;1.95;0.93;;;28.60;63.90;;;;;;5100298;28;20077;-70
2021/07/18 10:58:12;;;;;;;0.90;0.75;;;28.30;66.80;;;;;;5100560;28;20028;-70
2021/07/18 11:00:48;;;;;;;1.23;1.02;;;28.30;67.40;;;;;;5100188;28;20311;-70
2021/07/18 11:03:13;;;;;;;1.52;1.00;;;27.80;64.20;;;;;;5100501;28;20024;-70
2021/07/18 11:05:46;;;;;;;4.18;1.10;;;27.50;60.70;;;;;;5100386;28;20419;-70
2021/07/18 11:08:13;;;;;;;3.47;1.00;;;27.50;59.00;;;;;;5100455;28;20341;-70
2021/07/18 11:10:53;;;;;;;1.95;1.02;;;27.50;58.70;;;;;;5099989;28;20024;-70
2021/07/18 11:13:20;;;;;;;2.33;1.08;;;27.40;58.60;;;;;;5100285;28;20028;-70
2021/07/18 11:15:46;;;;;;;3.65;1.00;;;27.40;61.80;;;;;;5100159;28;20050;-70
2021/07/18 11:18:13;;;;;;;3.17;1.20;;;27.50;61.10;;;;;;5099789;28;20078;-70
2021/07/18 11:20:39;;;;;;;3.72;1.20;;;27.50;56.90;;;;;;5100131;28;20047;-70
2021/07/18 11:23:07;;;;;;;4.18;1.92;;;27.60;60.30;;;;;;5099671;28;20032;-70
2021/07/18 11:25:40;;;;;;;2.13;1.20;;;27.70;59.40;;;;;;5100010;28;20021;-70
2021/07/18 11:28:33;;;;;;;1.20;1.10;;;28.00;59.00;;;;;;5099967;28;20036;-70
2021/07/18 11:31:14;;;;;;;1.83;1.05;;;28.40;62.70;;;;;;5099501;28;20036;-70
2021/07/18 11:33:52;;;;;;;1.23;0.90;;;28.60;61.90;;;;;;5099465;28;20495;-70
2021/07/18 11:36:24;;;;;;;1.02;0.75;;;28.70;61.00;;;;;;5099259;28;20031;-70
2021/07/18 11:38:50;;;;;;;1.20;0.90;;;28.70;60.20;;;;;;5099267;28;20093;-70
2021/07/18 11:41:18;;;;;;;2.50;0.80;;;28.70;60.60;;;;;;5099460;28;20024;-70
2021/07/18 11:43:47;;;;;;;1.77;0.90;;;28.80;66.30;;;;;;5099577;28;20039;-70
2021/07/18 11:46:14;;;;;;;1.60;0.90;;;28.80;63.60;;;;;;5098690;28;20024;-70
2021/07/18 11:48:42;;;;;;;4.93;1.20;;;28.90;64.40;;;;;;5099616;28;20039;-70
2021/07/18 11:51:26;;;;;;;1.83;1.10;;;28.90;62.30;;;;;;5099149;28;20056;-70
2021/07/18 11:53:57;;;;;;;1.30;0.90;;;29.00;64.80;;;;;;5099465;28;20351;-70
2021/07/18 11:56:25;;;;;;;3.42;0.93;;;29.10;64.60;;;;;;5099116;28;20020;-70
2021/07/18 11:58:52;;;;;;;1.30;0.98;;;29.30;64.90;;;;;;5099105;28;20057;-70
2021/07/18 12:01:26;;;;;;;1.42;0.80;;;29.90;58.20;;;;;;5099010;28;20088;-70
2021/07/18 12:03:53;;;;;;;1.40;0.90;;;30.40;61.40;;;;;;5099243;28;20048;-70
2021/07/18 12:06:20;;;;;;;1.75;0.90;;;30.90;50.90;;;;;;5098951;28;20020;-70
2021/07/18 12:08:46;;;;;;;1.23;0.80;;;31.50;55.70;;;;;;5098912;28;20027;-70
2021/07/18 12:11:13;;;;;;;1.73;1.08;;;31.90;55.20;;;;;;5099186;28;20031;-70
2021/07/18 12:13:43;;;;;;;1.33;0.80;;;31.70;56.10;;;;;;5099178;28;20293;-70
2021/07/18 12:16:09;;;;;;;3.95;0.90;;;31.30;53.10;;;;;;5098948;28;20085;-71
2021/07/18 12:18:47;;;;;;;1.08;0.70;;;30.90;53.80;;;;;;5098996;28;20400;-70
2021/07/18 12:21:18;;;;;;;2.17;0.80;;;30.70;58.50;;;;;;5099006;28;20020;-70
2021/07/18 12:23:44;;;;;;;2.58;0.95;;;30.50;56.50;;;;;;5098577;28;20434;-70
2021/07/18 12:26:10;;;;;;;1.10;0.80;;;30.20;58.40;;;;;;5098812;28;20031;-70
2021/07/18 12:28:36;;;;;;;2.20;1.10;;;30.10;61.00;;;;;;5098844;28;20490;-70
2021/07/18 12:31:07;;;;;;;1.45;1.00;;;30.30;58.60;;;;;;5098490;28;20477;-70
2021/07/18 12:33:36;;;;;;;1.80;0.82;;;30.50;61.70;;;;;;5098682;28;20032;-70
2021/07/18 12:36:05;;;;;;;1.48;1.05;;;30.40;57.20;;;;;;5098267;28;20432;-70
2021/07/18 12:38:30;;;;;;;1.75;1.30;;;30.50;58.60;;;;;;5098343;28;20340;-70
2021/07/18 12:41:03;;;;;;;2.13;1.15;;;30.30;54.90;;;;;;5098516;28;20020;-71
2021/07/18 12:43:29;;;;;;;3.38;1.10;;;30.20;55.10;;;;;;5098309;28;20028;-70
2021/07/18 12:45:55;;;;;;;2.00;0.80;;;30.20;55.60;;;;;;5098140;28;20108;-70
2021/07/18 12:48:26;;;;;;;1.33;0.98;;;30.20;56.90;;;;;;5098137;28;20418;-71